createdAt,value
2022-10-28T00:00:05.826Z,4.20
2022-10-28T00:02:52.367Z,4.37
2022-10-28T00:05:39.090Z,4.70
2022-10-28T00:08:25.428Z,4.27
2022-10-28T00:11:16.029Z,4.27
2022-10-28T00:14:05.115Z,4.00
2022-10-28T00:16:51.867Z,4.43
2022-10-28T00:19:38.219Z,4.07
2022-10-28T00:22:24.581Z,3.17
2022-10-28T00:25:11.273Z,3.87
2022-10-28T00:27:57.602Z,3.93
2022-10-28T00:30:43.770Z,3.70
2022-10-28T00:33:30.466Z,4.17
2022-10-28T00:36:23.771Z,3.80
2022-10-28T00:39:16.129Z,4.00
2022-10-28T00:42:03.605Z,3.77
2022-10-28T00:44:55.256Z,4.37
2022-10-28T00:47:55.218Z,4.37
2022-10-28T00:50:54.062Z,3.60
2022-10-28T00:53:42.135Z,3.70
2022-10-28T00:56:32.871Z,4.80
2022-10-28T00:59:34.377Z,3.70
2022-10-28T01:02:21.383Z,4.17
2022-10-28T01:05:08.759Z,3.50
2022-10-28T01:08:01.433Z,4.43
2022-10-28T01:10:50.646Z,4.87
2022-10-28T01:14:00.434Z,6.13
2022-10-28T01:17:10.494Z,3.87
2022-10-28T01:20:27.303Z,4.30
2022-10-28T01:23:32.782Z,3.97
2022-10-28T01:26:33.552Z,3.97
2022-10-28T01:29:41.900Z,4.10
2022-10-28T01:33:04.349Z,4.03
2022-10-28T01:36:01.613Z,4.10
2022-10-28T01:38:51.038Z,3.97
2022-10-28T01:41:53.617Z,3.67
2022-10-28T01:44:56.301Z,4.80
2022-10-28T01:47:54.094Z,3.80
2022-10-28T01:50:51.046Z,3.67
2022-10-28T01:53:41.736Z,3.63
2022-10-28T01:56:33.009Z,3.70
2022-10-28T01:59:24.886Z,4.40
2022-10-28T02:02:11.236Z,3.60
2022-10-28T02:05:35.786Z,3.73
2022-10-28T02:08:52.307Z,4.30
2022-10-28T02:11:45.749Z,3.50
2022-10-28T02:18:14.961Z,4.43
2022-10-28T02:21:06.089Z,4.10
2022-10-28T02:24:16.218Z,3.63
2022-10-28T02:27:16.269Z,3.70
2022-10-28T02:30:19.170Z,3.83
2022-10-28T02:33:12.736Z,3.67
2022-10-28T02:36:05.236Z,3.67
2022-10-28T02:38:55.607Z,3.93
2022-10-28T02:41:48.229Z,3.97
2022-10-28T02:44:40.462Z,4.20
2022-10-28T02:47:32.570Z,4.67
2022-10-28T02:50:22.037Z,5.00
2022-10-28T02:53:19.166Z,4.10
2022-10-28T02:56:08.262Z,3.93
2022-10-28T02:58:54.473Z,3.97
2022-10-28T03:01:40.849Z,4.33
2022-10-28T03:04:27.383Z,3.77
2022-10-28T03:07:13.908Z,4.03
2022-10-28T03:10:00.461Z,3.77
2022-10-28T03:12:46.750Z,4.50
2022-10-28T03:15:33.258Z,3.90
2022-10-28T03:18:19.710Z,4.27
2022-10-28T03:21:05.914Z,4.00
2022-10-28T03:23:52.019Z,4.90
2022-10-28T03:26:38.777Z,6.40
2022-10-28T03:29:24.851Z,5.53
2022-10-28T03:32:10.985Z,4.80
2022-10-28T03:34:57.605Z,4.27
2022-10-28T03:37:44.362Z,4.20
2022-10-28T03:40:30.784Z,4.63
2022-10-28T03:43:17.854Z,5.00
2022-10-28T03:46:04.412Z,3.73
2022-10-28T03:48:50.620Z,3.90
2022-10-28T03:51:36.913Z,4.43
2022-10-28T03:54:23.301Z,3.60
2022-10-28T03:57:09.681Z,3.90
2022-10-28T03:59:55.868Z,4.03
2022-10-28T04:02:42.193Z,3.80
2022-10-28T04:05:28.649Z,3.57
2022-10-28T04:08:19.198Z,3.90
2022-10-28T04:11:05.794Z,3.97
2022-10-28T04:13:52.174Z,4.00
2022-10-28T04:16:38.454Z,3.57
2022-10-28T04:19:24.901Z,3.90
2022-10-28T04:22:10.996Z,4.17
2022-10-28T04:24:57.406Z,3.90
2022-10-28T04:27:45.205Z,4.00
2022-10-28T04:30:31.425Z,3.70
2022-10-28T04:33:18.112Z,3.80
2022-10-28T04:36:04.494Z,4.40
2022-10-28T04:38:51.896Z,3.77
2022-10-28T04:41:38.527Z,3.83
2022-10-28T04:44:24.556Z,4.00
2022-10-28T04:47:11.053Z,3.73
2022-10-28T04:49:57.264Z,3.90
2022-10-28T04:52:43.709Z,4.37
2022-10-28T04:55:30.154Z,4.40
2022-10-28T04:58:16.346Z,3.23
2022-10-28T05:01:07.411Z,4.00
2022-10-28T05:03:54.110Z,3.57
2022-10-28T05:06:40.334Z,3.37
2022-10-28T05:09:26.599Z,4.00
2022-10-28T05:12:13.001Z,3.67
2022-10-28T05:14:59.368Z,4.20
2022-10-28T05:17:46.729Z,3.77
2022-10-28T05:20:33.190Z,3.73
2022-10-28T05:23:25.815Z,3.97
2022-10-28T05:26:15.117Z,4.00
2022-10-28T05:29:01.499Z,4.60
2022-10-28T05:31:47.997Z,3.90
2022-10-28T05:34:34.514Z,4.70
2022-10-28T05:37:20.719Z,4.50
2022-10-28T05:40:07.813Z,4.03
2022-10-28T05:42:54.421Z,4.10
2022-10-28T05:45:41.199Z,4.13
2022-10-28T05:48:27.737Z,4.07
2022-10-28T05:51:14.231Z,3.90
2022-10-28T05:54:00.533Z,4.40
2022-10-28T05:56:46.837Z,4.07
2022-10-28T05:59:33.313Z,3.93
2022-10-28T06:02:19.822Z,4.07
2022-10-28T06:05:06.528Z,4.30
2022-10-28T06:07:53.101Z,4.10
2022-10-28T06:10:40.310Z,4.57
2022-10-28T06:13:25.337Z,4.60
2022-10-28T06:16:11.534Z,5.07
2022-10-28T06:18:57.927Z,4.17
2022-10-28T06:21:44.088Z,4.37
2022-10-28T06:24:30.333Z,4.30
2022-10-28T06:27:16.702Z,4.40
2022-10-28T06:30:03.631Z,4.60
2022-10-28T06:32:50.088Z,4.53
2022-10-28T06:35:36.663Z,4.63
2022-10-28T06:38:23.807Z,4.93
2022-10-28T06:41:10.223Z,5.03
2022-10-28T06:43:56.518Z,4.53
2022-10-28T06:46:44.441Z,4.83
2022-10-28T06:49:30.691Z,4.00
2022-10-28T06:52:17.204Z,4.17
2022-10-28T06:55:03.684Z,4.80
2022-10-28T06:57:49.873Z,3.80
2022-10-28T07:00:36.087Z,4.17
2022-10-28T07:03:22.585Z,3.50
2022-10-28T07:06:09.650Z,4.30
2022-10-28T07:08:55.768Z,3.70
2022-10-28T07:11:45.146Z,4.30
2022-10-28T07:14:32.091Z,3.80
2022-10-28T07:17:18.520Z,4.03
2022-10-28T07:20:05.308Z,4.03
2022-10-28T07:23:00.335Z,5.87
2022-10-28T07:25:54.927Z,3.97
2022-10-28T07:28:42.836Z,3.57
2022-10-28T07:31:29.634Z,3.97
2022-10-28T07:34:16.005Z,3.80
2022-10-28T07:37:02.134Z,3.20
2022-10-28T07:39:48.467Z,3.97
2022-10-28T07:42:35.212Z,3.60
2022-10-28T07:45:21.985Z,3.93
2022-10-28T07:48:09.628Z,4.00
2022-10-28T07:50:55.897Z,4.30
2022-10-28T07:53:42.340Z,3.90
2022-10-28T07:56:28.826Z,3.83
2022-10-28T07:59:15.891Z,3.90
2022-10-28T08:02:02.951Z,3.80
2022-10-28T08:04:49.460Z,3.60
2022-10-28T08:07:38.522Z,3.53
2022-10-28T08:10:26.602Z,3.80
2022-10-28T08:13:13.252Z,3.80
2022-10-28T08:16:00.500Z,3.43
2022-10-28T08:18:47.053Z,3.80
2022-10-28T08:21:33.212Z,3.80
2022-10-28T08:24:19.499Z,4.30
2022-10-28T08:27:06.132Z,4.27
2022-10-28T08:29:53.964Z,3.90
2022-10-28T08:32:40.000Z,3.90
2022-10-28T08:35:26.400Z,3.90
2022-10-28T08:38:12.609Z,3.47
2022-10-28T08:41:07.836Z,4.60
2022-10-28T08:44:12.672Z,3.87
2022-10-28T08:47:05.133Z,3.70
2022-10-28T08:49:57.741Z,4.17
2022-10-28T08:53:14.544Z,4.50
2022-10-28T08:56:14.484Z,3.40
2022-10-28T08:59:04.645Z,4.07
2022-10-28T09:01:56.632Z,4.10
2022-10-28T09:04:45.411Z,3.63
2022-10-28T09:07:35.980Z,3.73
2022-10-28T09:10:34.611Z,3.93
2022-10-28T09:13:41.340Z,4.23
2022-10-28T09:16:46.125Z,4.83
2022-10-28T09:19:47.374Z,3.90
2022-10-28T09:22:43.304Z,4.17
2022-10-28T09:25:53.112Z,4.40
2022-10-28T09:29:11.694Z,4.10
2022-10-28T09:32:16.785Z,3.90
2022-10-28T09:35:11.529Z,4.07
2022-10-28T09:38:12.021Z,4.00
2022-10-28T09:41:04.301Z,4.07
2022-10-28T09:44:00.556Z,5.07
2022-10-28T09:46:51.077Z,3.60
2022-10-28T09:49:39.879Z,4.60
2022-10-28T09:52:43.239Z,4.40
2022-10-28T09:55:30.289Z,3.77
2022-10-28T09:58:18.013Z,3.67
2022-10-28T10:01:04.933Z,4.17
2022-10-28T10:03:52.236Z,4.77
2022-10-28T10:06:42.708Z,4.30
2022-10-28T10:09:31.770Z,3.60
2022-10-28T10:12:18.471Z,4.13
2022-10-28T10:15:07.575Z,4.07
2022-10-28T10:17:57.297Z,4.17
2022-10-28T10:20:52.382Z,3.90
2022-10-28T10:26:32.606Z,3.93
2022-10-28T10:29:19.611Z,4.67
2022-10-28T10:32:15.188Z,4.17
2022-10-28T10:35:06.644Z,4.43
2022-10-28T10:37:55.743Z,4.03
2022-10-28T10:40:50.379Z,4.57
2022-10-28T10:43:36.756Z,3.90
2022-10-28T10:46:23.001Z,5.40
2022-10-28T10:49:15.764Z,3.77
2022-10-28T10:52:04.149Z,4.30
2022-10-28T10:55:01.616Z,4.40
2022-10-28T10:57:49.013Z,4.67
2022-10-28T11:00:45.880Z,4.63
2022-10-28T11:03:36.764Z,4.27
2022-10-28T11:06:27.248Z,3.67
2022-10-28T11:09:27.429Z,3.47
2022-10-28T11:12:34.928Z,4.17
2022-10-28T11:15:29.871Z,4.00
2022-10-28T11:18:20.545Z,4.03
2022-10-28T11:21:44.652Z,3.80
2022-10-28T11:24:49.412Z,3.83
2022-10-28T11:28:06.532Z,3.90
2022-10-28T11:31:11.438Z,3.90
2022-10-28T11:34:13.040Z,4.50
2022-10-28T11:37:19.712Z,4.40
2022-10-28T11:40:14.803Z,4.40
2022-10-28T11:43:23.811Z,3.67
2022-10-28T11:46:38.181Z,3.83
2022-10-28T11:49:30.617Z,4.17
2022-10-28T11:52:54.355Z,3.70
2022-10-28T11:55:58.719Z,4.10
2022-10-28T11:59:00.776Z,4.53
2022-10-28T12:02:02.090Z,3.37
2022-10-28T12:05:09.892Z,3.33
2022-10-28T12:08:05.003Z,3.67
2022-10-28T12:11:00.419Z,3.10
2022-10-28T12:14:26.747Z,2.87
2022-10-28T12:17:35.562Z,2.80
2022-10-28T12:20:28.657Z,3.07
2022-10-28T12:23:21.882Z,2.60
2022-10-28T12:26:12.988Z,2.93
2022-10-28T12:29:03.468Z,3.30
2022-10-28T12:32:07.955Z,3.00
2022-10-28T12:35:03.644Z,3.03
2022-10-28T12:38:02.798Z,3.57
2022-10-28T12:41:08.141Z,2.53
2022-10-28T12:44:24.416Z,2.50
2022-10-28T12:47:22.917Z,2.63
2022-10-28T12:50:27.751Z,3.00
2022-10-28T12:53:24.529Z,3.30
2022-10-28T12:56:21.845Z,3.13
2022-10-28T12:59:34.269Z,2.70
2022-10-28T13:02:30.233Z,2.43
2022-10-28T13:05:41.601Z,3.07
2022-10-28T13:08:47.073Z,3.43
2022-10-28T13:11:49.167Z,2.90
2022-10-28T13:15:05.127Z,2.53
2022-10-28T13:18:01.527Z,3.60
2022-10-28T13:21:18.848Z,2.60
2022-10-28T13:24:16.946Z,2.97
2022-10-28T13:27:05.168Z,2.40
2022-10-28T13:29:56.489Z,2.00
2022-10-28T13:32:43.252Z,2.13
2022-10-28T13:35:30.808Z,2.20
2022-10-28T13:38:23.709Z,2.57
2022-10-28T13:41:25.830Z,2.40
2022-10-28T13:44:25.048Z,2.47
2022-10-28T13:47:14.378Z,2.67
2022-10-28T13:50:10.053Z,2.43
2022-10-28T13:53:42.491Z,2.93
2022-10-28T13:56:39.287Z,2.50
2022-10-28T13:59:34.376Z,3.13
2022-10-28T14:02:36.747Z,3.67
2022-10-28T14:05:32.221Z,2.20
2022-10-28T14:08:32.388Z,2.43
2022-10-28T14:11:29.131Z,2.33
2022-10-28T14:14:17.069Z,2.77
2022-10-28T14:17:04.103Z,2.77
2022-10-28T14:19:52.690Z,2.73
2022-10-28T14:22:39.050Z,2.87
2022-10-28T14:25:40.844Z,2.80
2022-10-28T14:28:27.252Z,3.23
2022-10-28T14:31:14.579Z,2.30
2022-10-28T14:34:00.895Z,2.87
2022-10-28T14:36:50.344Z,2.83
2022-10-28T14:40:00.623Z,2.40
2022-10-28T14:43:06.028Z,2.67
2022-10-28T14:46:15.800Z,3.10
2022-10-28T14:49:04.068Z,2.40
2022-10-28T14:51:51.947Z,2.83
2022-10-28T14:54:48.071Z,2.97
2022-10-28T14:57:34.765Z,2.83
2022-10-28T15:00:25.859Z,4.03
2022-10-28T15:03:14.024Z,3.00
2022-10-28T15:06:23.698Z,2.70
2022-10-28T15:09:22.784Z,2.50
2022-10-28T15:12:16.749Z,3.07
2022-10-28T15:15:03.413Z,3.20
2022-10-28T15:17:50.222Z,3.00
2022-10-28T15:20:36.773Z,3.23
2022-10-28T15:23:23.470Z,3.30
2022-10-28T15:26:17.059Z,3.33
2022-10-28T15:29:03.355Z,3.13
2022-10-28T15:32:24.130Z,3.63
2022-10-28T15:35:29.670Z,2.77
2022-10-28T15:38:32.752Z,3.10
2022-10-28T15:41:22.296Z,3.50
2022-10-28T15:44:25.656Z,3.37
2022-10-28T15:47:33.129Z,3.40
2022-10-28T15:50:28.252Z,4.03
2022-10-28T15:53:33.129Z,4.43
2022-10-28T15:56:19.666Z,3.33
2022-10-28T15:59:23.842Z,3.77
2022-10-28T16:02:43.039Z,3.50
2022-10-28T16:05:32.593Z,3.83
2022-10-28T16:08:39.489Z,3.10
2022-10-28T16:11:26.597Z,3.57
2022-10-28T16:14:37.574Z,3.03
2022-10-28T16:17:42.284Z,3.33
2022-10-28T16:20:30.546Z,3.50
2022-10-28T16:23:19.477Z,3.30
2022-10-28T16:26:06.101Z,4.40
2022-10-28T16:28:52.665Z,4.40
2022-10-28T16:31:41.478Z,4.77
2022-10-28T16:34:27.792Z,6.10
2022-10-28T16:37:21.957Z,4.20
2022-10-28T16:40:24.883Z,5.00
2022-10-28T16:43:17.420Z,3.90
2022-10-28T16:46:03.798Z,4.57
2022-10-28T16:48:50.521Z,3.77
2022-10-28T16:51:37.151Z,4.70
2022-10-28T16:54:23.420Z,5.13
2022-10-28T16:57:09.911Z,4.07
2022-10-28T17:05:21.178Z,5.33
2022-10-28T17:22:47.202Z,4.50
2022-10-28T17:25:33.828Z,4.70
2022-10-28T17:28:20.309Z,4.23
2022-10-28T17:31:08.737Z,4.40
2022-10-28T17:33:55.515Z,5.10
2022-10-28T17:36:42.162Z,5.30
2022-10-28T17:39:29.053Z,5.00
2022-10-28T17:42:15.638Z,7.07
2022-10-28T17:45:01.826Z,7.77
2022-10-28T17:47:48.639Z,5.73
2022-10-28T17:50:34.981Z,6.00
2022-10-28T17:53:22.157Z,5.27
2022-10-28T17:56:09.352Z,5.97
2022-10-28T17:58:56.076Z,7.10
2022-10-28T18:01:42.503Z,5.60
2022-10-28T18:04:30.273Z,6.43
2022-10-28T18:07:16.707Z,7.27
2022-10-28T18:10:03.522Z,5.90
2022-10-28T18:12:51.396Z,6.33
2022-10-28T18:15:38.224Z,6.67
2022-10-28T18:18:27.806Z,5.50
2022-10-28T18:21:14.406Z,5.40
2022-10-28T18:24:03.934Z,5.50
2022-10-28T18:26:54.558Z,6.50
2022-10-28T18:29:41.320Z,5.73
2022-10-28T18:32:27.735Z,6.10
2022-10-28T18:35:14.130Z,6.10
2022-10-28T18:38:01.268Z,6.70
2022-10-28T18:40:47.953Z,6.73
2022-10-28T18:43:34.352Z,6.30
2022-10-28T18:46:21.203Z,6.13
2022-10-28T18:49:08.062Z,6.30
2022-10-28T18:51:54.528Z,6.27
2022-10-28T18:54:41.065Z,8.00
2022-10-28T18:57:27.218Z,7.70
2022-10-28T19:00:18.884Z,6.33
2022-10-28T19:03:05.817Z,6.70
2022-10-28T19:05:52.072Z,5.73
2022-10-28T19:08:38.646Z,7.10
2022-10-28T19:11:29.884Z,6.93
2022-10-28T19:14:16.215Z,6.80
2022-10-28T19:17:03.363Z,6.87
2022-10-28T19:19:51.408Z,6.53
2022-10-28T19:22:37.908Z,6.77
2022-10-28T19:25:24.207Z,7.33
2022-10-28T19:28:10.719Z,7.37
2022-10-28T19:31:01.962Z,6.93
2022-10-28T19:33:48.840Z,7.07
2022-10-28T19:36:35.333Z,7.20
2022-10-28T19:39:21.684Z,6.33
2022-10-28T19:42:08.144Z,6.97
2022-10-28T19:44:54.436Z,6.70
2022-10-28T19:47:40.699Z,5.80
2022-10-28T19:50:27.276Z,6.20
2022-10-28T19:53:13.417Z,5.97
2022-10-28T19:56:01.672Z,5.50
2022-10-28T19:58:53.182Z,6.43
2022-10-28T20:01:40.316Z,6.87
2022-10-28T20:04:27.070Z,6.27
2022-10-28T20:07:13.192Z,6.90
2022-10-28T20:12:50.741Z,6.33
2022-10-28T20:15:37.111Z,6.17
2022-10-28T20:18:24.014Z,6.43
2022-10-28T20:21:18.784Z,6.17
2022-10-28T20:24:06.661Z,6.70
2022-10-28T20:26:53.149Z,5.53
2022-10-28T20:29:39.565Z,5.93
2022-10-28T20:32:29.368Z,5.77
2022-10-28T20:35:15.653Z,5.67
2022-10-28T20:38:01.834Z,6.07
2022-10-28T20:40:49.706Z,6.77
2022-10-28T20:43:35.792Z,6.53
2022-10-28T20:46:23.740Z,6.67
2022-10-28T20:49:10.503Z,6.40
2022-10-28T20:51:56.931Z,7.07
2022-10-28T20:54:43.405Z,7.03
2022-10-28T20:57:29.523Z,6.80
2022-10-28T21:00:17.547Z,7.00
2022-10-28T21:03:03.935Z,7.23
2022-10-28T21:05:50.563Z,5.40
2022-10-28T21:08:37.751Z,5.67
2022-10-28T21:11:24.895Z,7.27
2022-10-28T21:14:11.441Z,6.47
2022-10-28T21:16:58.343Z,5.60
2022-10-28T21:19:44.623Z,6.17
2022-10-28T21:22:31.095Z,6.13
2022-10-28T21:25:17.576Z,7.07
2022-10-28T21:28:04.357Z,6.70
2022-10-28T21:30:50.468Z,6.30
2022-10-28T21:33:38.060Z,7.50
2022-10-28T21:36:24.884Z,6.90
2022-10-28T21:39:10.947Z,6.63
2022-10-28T21:41:57.324Z,6.87
2022-10-28T21:44:43.933Z,7.57
2022-10-28T21:47:34.627Z,7.30
2022-10-28T21:50:21.101Z,6.83
2022-10-28T21:53:07.720Z,7.73
2022-10-28T21:56:02.623Z,6.70
2022-10-28T21:58:50.581Z,5.80
2022-10-28T22:01:37.113Z,7.43
2022-10-28T22:04:23.705Z,7.10
2022-10-28T22:07:09.915Z,7.47
2022-10-28T22:09:56.023Z,6.63
2022-10-28T22:12:42.475Z,7.27
2022-10-28T22:15:28.912Z,7.37
2022-10-28T22:18:15.369Z,6.67
2022-10-28T22:21:05.848Z,5.87
2022-10-28T22:23:52.607Z,6.37
2022-10-28T22:26:39.132Z,6.63
2022-10-28T22:29:25.305Z,7.27
2022-10-28T22:32:11.488Z,6.50
2022-10-28T22:34:57.584Z,5.83
2022-10-28T22:37:43.904Z,6.17
2022-10-28T22:40:30.051Z,5.70
2022-10-28T22:43:16.292Z,6.13
2022-10-28T22:46:03.372Z,6.10
2022-10-28T22:48:49.611Z,6.23
2022-10-28T22:51:36.424Z,6.03
2022-10-28T22:54:22.959Z,5.33
2022-10-28T22:57:09.508Z,6.50
2022-10-28T22:59:55.754Z,6.00
2022-10-28T23:02:42.399Z,5.27
2022-10-28T23:05:28.906Z,5.67
2022-10-28T23:08:16.032Z,5.63
2022-10-28T23:11:02.859Z,5.57
2022-10-28T23:13:53.810Z,4.53
2022-10-28T23:16:40.356Z,4.30
2022-10-28T23:19:26.888Z,5.20
2022-10-28T23:22:13.353Z,4.37
2022-10-28T23:24:59.886Z,5.03
2022-10-28T23:27:46.256Z,4.60
2022-10-28T23:30:32.856Z,4.80
2022-10-28T23:33:19.346Z,4.87
2022-10-28T23:36:05.707Z,5.43
2022-10-28T23:38:52.506Z,5.00
2022-10-28T23:41:38.820Z,5.40
2022-10-28T23:44:25.233Z,5.80
2022-10-28T23:47:11.756Z,5.00
2022-10-28T23:49:58.164Z,5.03
2022-10-28T23:52:44.570Z,5.33
2022-10-28T23:55:31.012Z,6.27
2022-10-28T23:58:19.406Z,5.70
